sensor_id;sensor_type;location;lat;lon;timestamp;temperature;humidity
12438;DHT22;6283;51.330;12.374;2024-01-11T00:01:44;-4.70;1.00
12438;DHT22;6283;51.330;12.374;2024-01-11T00:04:09;-5.00;1.00
12438;DHT22;6283;51.330;12.374;2024-01-11T00:06:41;-5.10;1.00
12438;DHT22;6283;51.330;12.374;2024-01-11T00:09:07;-5.00;1.00
12438;DHT22;6283;51.330;12.374;2024-01-11T00:11:33;-5.20;1.00
12438;DHT22;6283;51.330;12.374;2024-01-11T00:13:58;-5.30;1.00
12438;DHT22;6283;51.330;12.374;2024-01-11T00:16:24;-5.30;1.00
12438;DHT22;6283;51.330;12.374;2024-01-11T00:18:49;-5.30;1.00
12438;DHT22;6283;51.330;12.374;2024-01-11T00:21:15;-5.20;1.00
12438;DHT22;6283;51.330;12.374;2024-01-11T00:23:41;-5.20;1.00
12438;DHT22;6283;51.330;12.374;2024-01-11T00:26:06;-5.30;1.00
12438;DHT22;6283;51.330;12.374;2024-01-11T00:28:32;-5.30;1.00
12438;DHT22;6283;51.330;12.374;2024-01-11T00:30:57;-5.30;1.00
12438;DHT22;6283;51.330;12.374;2024-01-11T00:33:23;-5.30;1.00
12438;DHT22;6283;51.330;12.374;2024-01-11T00:35:48;-5.30;1.00
12438;DHT22;6283;51.330;12.374;2024-01-11T00:38:14;-5.40;1.00
12438;DHT22;6283;51.330;12.374;2024-01-11T00:40:40;-5.20;1.00
12438;DHT22;6283;51.330;12.374;2024-01-11T00:43:05;-5.30;1.00
12438;DHT22;6283;51.330;12.374;2024-01-11T00:45:31;-5.30;1.00
12438;DHT22;6283;51.330;12.374;2024-01-11T00:47:56;-5.30;1.00
12438;DHT22;6283;51.330;12.374;2024-01-11T00:50:22;-5.20;1.00
12438;DHT22;6283;51.330;12.374;2024-01-11T00:52:47;-5.30;1.00
12438;DHT22;6283;51.330;12.374;2024-01-11T00:55:13;-5.20;1.00
12438;DHT22;6283;51.330;12.374;2024-01-11T00:57:39;-5.30;1.00
12438;DHT22;6283;51.330;12.374;2024-01-11T01:00:05;-5.20;1.00
12438;DHT22;6283;51.330;12.374;2024-01-11T01:02:31;-5.30;1.00
12438;DHT22;6283;51.330;12.374;2024-01-11T01:04:56;-5.20;1.00
12438;DHT22;6283;51.330;12.374;2024-01-11T01:07:22;-5.20;1.00
12438;DHT22;6283;51.330;12.374;2024-01-11T01:09:47;-5.20;1.00
12438;DHT22;6283;51.330;12.374;2024-01-11T01:12:13;-5.30;1.00
12438;DHT22;6283;51.330;12.374;2024-01-11T01:14:39;-5.50;1.00
12438;DHT22;6283;51.330;12.374;2024-01-11T01:17:04;-5.60;1.00
12438;DHT22;6283;51.330;12.374;2024-01-11T01:19:30;-5.50;1.00
12438;DHT22;6283;51.330;12.374;2024-01-11T01:21:56;-5.80;1.00
12438;DHT22;6283;51.330;12.374;2024-01-11T01:24:21;-5.50;1.00
12438;DHT22;6283;51.330;12.374;2024-01-11T01:26:47;-5.60;1.00
12438;DHT22;6283;51.330;12.374;2024-01-11T01:29:14;-5.60;1.00
12438;DHT22;6283;51.330;12.374;2024-01-11T01:31:39;-5.70;1.00
12438;DHT22;6283;51.330;12.374;2024-01-11T01:34:07;-5.70;1.00
12438;DHT22;6283;51.330;12.374;2024-01-11T01:36:33;-5.70;1.00
12438;DHT22;6283;51.330;12.374;2024-01-11T01:38:58;-5.90;1.00
12438;DHT22;6283;51.330;12.374;2024-01-11T01:41:24;-5.70;1.00
12438;DHT22;6283;51.330;12.374;2024-01-11T01:43:49;-5.80;1.00
12438;DHT22;6283;51.330;12.374;2024-01-11T01:46:21;-5.90;1.00
12438;DHT22;6283;51.330;12.374;2024-01-11T01:48:48;-5.90;1.00
12438;DHT22;6283;51.330;12.374;2024-01-11T01:51:14;-5.90;1.00
12438;DHT22;6283;51.330;12.374;2024-01-11T01:53:40;-5.90;1.00
12438;DHT22;6283;51.330;12.374;2024-01-11T01:56:06;-5.80;1.00
12438;DHT22;6283;51.330;12.374;2024-01-11T01:58:33;-5.80;1.00
12438;DHT22;6283;51.330;12.374;2024-01-11T02:01:03;-5.80;1.00
12438;DHT22;6283;51.330;12.374;2024-01-11T02:03:29;-5.90;1.00
12438;DHT22;6283;51.330;12.374;2024-01-11T02:05:56;-5.80;1.00
12438;DHT22;6283;51.330;12.374;2024-01-11T02:08:22;-5.70;1.00
12438;DHT22;6283;51.330;12.374;2024-01-11T02:10:51;-5.70;1.00
12438;DHT22;6283;51.330;12.374;2024-01-11T02:13:17;-5.70;1.00
12438;DHT22;6283;51.330;12.374;2024-01-11T02:15:44;-5.80;1.00
12438;DHT22;6283;51.330;12.374;2024-01-11T02:18:10;-5.70;1.00
12438;DHT22;6283;51.330;12.374;2024-01-11T02:20:35;-5.70;1.00
12438;DHT22;6283;51.330;12.374;2024-01-11T02:23:05;-5.70;1.00
12438;DHT22;6283;51.330;12.374;2024-01-11T02:25:33;-5.70;1.00
12438;DHT22;6283;51.330;12.374;2024-01-11T02:27:59;-5.70;1.00
12438;DHT22;6283;51.330;12.374;2024-01-11T02:30:24;-5.90;1.00
12438;DHT22;6283;51.330;12.374;2024-01-11T02:32:50;-5.80;1.00
12438;DHT22;6283;51.330;12.374;2024-01-11T02:35:17;-5.80;1.00
12438;DHT22;6283;51.330;12.374;2024-01-11T02:37:44;-6.20;1.00
12438;DHT22;6283;51.330;12.374;2024-01-11T02:40:13;-5.90;1.00
12438;DHT22;6283;51.330;12.374;2024-01-11T02:42:38;-5.90;1.00
12438;DHT22;6283;51.330;12.374;2024-01-11T02:45:04;-6.20;1.00
12438;DHT22;6283;51.330;12.374;2024-01-11T02:47:30;-5.80;1.00
12438;DHT22;6283;51.330;12.374;2024-01-11T02:49:56;-5.90;1.00
12438;DHT22;6283;51.330;12.374;2024-01-11T02:52:23;-6.00;1.00
12438;DHT22;6283;51.330;12.374;2024-01-11T02:54:48;-5.90;1.00
12438;DHT22;6283;51.330;12.374;2024-01-11T02:57:14;-6.00;1.00
12438;DHT22;6283;51.330;12.374;2024-01-11T02:59:40;-5.90;1.00
12438;DHT22;6283;51.330;12.374;2024-01-11T03:02:06;-5.80;1.00
12438;DHT22;6283;51.330;12.374;2024-01-11T03:04:31;-5.70;1.00
12438;DHT22;6283;51.330;12.374;2024-01-11T03:06:57;-5.70;1.00
12438;DHT22;6283;51.330;12.374;2024-01-11T03:09:23;-5.80;1.00
12438;DHT22;6283;51.330;12.374;2024-01-11T03:11:48;-5.60;1.00
12438;DHT22;6283;51.330;12.374;2024-01-11T03:14:14;-5.70;1.00
12438;DHT22;6283;51.330;12.374;2024-01-11T03:16:39;-5.80;1.00
12438;DHT22;6283;51.330;12.374;2024-01-11T03:19:06;-5.80;1.00
12438;DHT22;6283;51.330;12.374;2024-01-11T03:21:32;-5.70;1.00
12438;DHT22;6283;51.330;12.374;2024-01-11T03:23:57;-5.70;1.00
12438;DHT22;6283;51.330;12.374;2024-01-11T03:26:25;-5.80;1.00
12438;DHT22;6283;51.330;12.374;2024-01-11T03:28:50;-5.70;1.00
12438;DHT22;6283;51.330;12.374;2024-01-11T03:31:16;-5.80;1.00
12438;DHT22;6283;51.330;12.374;2024-01-11T03:33:42;-5.60;1.00
12438;DHT22;6283;51.330;12.374;2024-01-11T03:36:11;-5.70;1.00
12438;DHT22;6283;51.330;12.374;2024-01-11T03:38:37;-5.70;1.00
12438;DHT22;6283;51.330;12.374;2024-01-11T03:41:08;-5.70;1.00
12438;DHT22;6283;51.330;12.374;2024-01-11T03:43:35;-5.70;1.00
12438;DHT22;6283;51.330;12.374;2024-01-11T03:46:01;-5.80;1.00
12438;DHT22;6283;51.330;12.374;2024-01-11T03:48:26;-5.70;1.00
12438;DHT22;6283;51.330;12.374;2024-01-11T03:50:52;-5.90;1.00
12438;DHT22;6283;51.330;12.374;2024-01-11T03:53:18;-6.00;1.00
12438;DHT22;6283;51.330;12.374;2024-01-11T03:55:43;-5.90;1.00
12438;DHT22;6283;51.330;12.374;2024-01-11T03:58:09;-5.90;1.00
12438;DHT22;6283;51.330;12.374;2024-01-11T04:00:34;-5.90;1.00
12438;DHT22;6283;51.330;12.374;2024-01-11T04:03:00;-5.90;1.00
12438;DHT22;6283;51.330;12.374;2024-01-11T04:05:27;-6.10;1.00
12438;DHT22;6283;51.330;12.374;2024-01-11T04:07:53;-6.20;1.00
12438;DHT22;6283;51.330;12.374;2024-01-11T04:10:18;-6.20;1.00
12438;DHT22;6283;51.330;12.374;2024-01-11T04:12:44;-6.20;1.00
12438;DHT22;6283;51.330;12.374;2024-01-11T04:15:12;-6.20;1.00
12438;DHT22;6283;51.330;12.374;2024-01-11T04:17:39;-6.20;1.00
12438;DHT22;6283;51.330;12.374;2024-01-11T04:20:06;-6.20;1.00
12438;DHT22;6283;51.330;12.374;2024-01-11T04:22:32;-6.20;1.00
12438;DHT22;6283;51.330;12.374;2024-01-11T04:24:57;-6.20;1.00
12438;DHT22;6283;51.330;12.374;2024-01-11T04:27:23;-6.10;1.00
12438;DHT22;6283;51.330;12.374;2024-01-11T04:29:49;-6.00;1.00
12438;DHT22;6283;51.330;12.374;2024-01-11T04:32:14;-6.00;1.00
12438;DHT22;6283;51.330;12.374;2024-01-11T04:34:40;-6.00;1.00
12438;DHT22;6283;51.330;12.374;2024-01-11T04:37:06;-6.00;1.00
12438;DHT22;6283;51.330;12.374;2024-01-11T04:39:32;-5.90;1.00
12438;DHT22;6283;51.330;12.374;2024-01-11T04:41:59;-6.10;1.00
12438;DHT22;6283;51.330;12.374;2024-01-11T04:44:26;-5.90;1.00
12438;DHT22;6283;51.330;12.374;2024-01-11T04:46:52;-5.80;1.00
12438;DHT22;6283;51.330;12.374;2024-01-11T04:49:17;-5.80;1.00
12438;DHT22;6283;51.330;12.374;2024-01-11T04:51:43;-5.80;1.00
12438;DHT22;6283;51.330;12.374;2024-01-11T04:54:08;-5.70;1.00
12438;DHT22;6283;51.330;12.374;2024-01-11T04:56:34;-5.80;1.00
12438;DHT22;6283;51.330;12.374;2024-01-11T04:58:59;-5.60;1.00
12438;DHT22;6283;51.330;12.374;2024-01-11T05:01:25;-5.70;1.00
12438;DHT22;6283;51.330;12.374;2024-01-11T05:03:51;-5.70;1.00
12438;DHT22;6283;51.330;12.374;2024-01-11T05:06:21;-5.70;1.00
12438;DHT22;6283;51.330;12.374;2024-01-11T05:08:49;-5.70;1.00
12438;DHT22;6283;51.330;12.374;2024-01-11T05:11:16;-5.70;1.00
12438;DHT22;6283;51.330;12.374;2024-01-11T05:13:43;-5.70;1.00
12438;DHT22;6283;51.330;12.374;2024-01-11T05:16:23;-5.70;1.00
12438;DHT22;6283;51.330;12.374;2024-01-11T05:18:50;-5.70;1.00
12438;DHT22;6283;51.330;12.374;2024-01-11T05:21:16;-5.90;1.00
12438;DHT22;6283;51.330;12.374;2024-01-11T05:23:42;-5.90;1.00
12438;DHT22;6283;51.330;12.374;2024-01-11T05:26:09;-5.90;1.00
12438;DHT22;6283;51.330;12.374;2024-01-11T05:28:35;-6.00;1.00
12438;DHT22;6283;51.330;12.374;2024-01-11T05:31:01;-6.10;1.00
12438;DHT22;6283;51.330;12.374;2024-01-11T05:33:26;-6.10;1.00
12438;DHT22;6283;51.330;12.374;2024-01-11T05:35:52;-6.10;1.00
12438;DHT22;6283;51.330;12.374;2024-01-11T05:38:19;-6.10;1.00
12438;DHT22;6283;51.330;12.374;2024-01-11T05:40:45;-6.10;1.00
12438;DHT22;6283;51.330;12.374;2024-01-11T05:43:10;-6.30;1.00
12438;DHT22;6283;51.330;12.374;2024-01-11T05:45:36;-6.20;1.00
12438;DHT22;6283;51.330;12.374;2024-01-11T05:48:02;-6.20;1.00
12438;DHT22;6283;51.330;12.374;2024-01-11T05:50:27;-6.20;1.00
12438;DHT22;6283;51.330;12.374;2024-01-11T05:52:53;-6.20;1.00
12438;DHT22;6283;51.330;12.374;2024-01-11T05:55:22;-6.40;1.00
12438;DHT22;6283;51.330;12.374;2024-01-11T05:57:48;-6.20;1.00
12438;DHT22;6283;51.330;12.374;2024-01-11T06:00:14;-6.20;1.00
12438;DHT22;6283;51.330;12.374;2024-01-11T06:02:40;-6.20;1.00
12438;DHT22;6283;51.330;12.374;2024-01-11T06:05:08;-6.30;1.00
12438;DHT22;6283;51.330;12.374;2024-01-11T06:07:35;-6.60;1.00
12438;DHT22;6283;51.330;12.374;2024-01-11T06:10:00;-6.60;1.00
12438;DHT22;6283;51.330;12.374;2024-01-11T06:12:31;-6.80;1.00
12438;DHT22;6283;51.330;12.374;2024-01-11T06:14:56;-6.50;1.00
12438;DHT22;6283;51.330;12.374;2024-01-11T06:17:23;-6.60;1.00
12438;DHT22;6283;51.330;12.374;2024-01-11T06:19:49;-6.70;1.00
12438;DHT22;6283;51.330;12.374;2024-01-11T06:22:15;-6.40;1.00
12438;DHT22;6283;51.330;12.374;2024-01-11T06:24:40;-6.40;1.00
12438;DHT22;6283;51.330;12.374;2024-01-11T06:27:06;-6.50;1.00
12438;DHT22;6283;51.330;12.374;2024-01-11T06:29:32;-6.50;1.00
12438;DHT22;6283;51.330;12.374;2024-01-11T06:31:58;-6.60;1.00
12438;DHT22;6283;51.330;12.374;2024-01-11T06:34:23;-6.90;1.00
12438;DHT22;6283;51.330;12.374;2024-01-11T06:36:49;-6.90;1.00
12438;DHT22;6283;51.330;12.374;2024-01-11T06:39:15;-6.70;1.00
12438;DHT22;6283;51.330;12.374;2024-01-11T06:41:40;-6.70;1.00
12438;DHT22;6283;51.330;12.374;2024-01-11T06:44:06;-6.80;1.00
12438;DHT22;6283;51.330;12.374;2024-01-11T06:46:31;-6.50;1.00
12438;DHT22;6283;51.330;12.374;2024-01-11T06:48:57;-6.50;1.00
12438;DHT22;6283;51.330;12.374;2024-01-11T06:51:23;-6.90;1.00
12438;DHT22;6283;51.330;12.374;2024-01-11T06:53:49;-6.90;1.00
12438;DHT22;6283;51.330;12.374;2024-01-11T06:56:19;-6.90;1.00
12438;DHT22;6283;51.330;12.374;2024-01-11T06:58:45;-6.90;1.00
12438;DHT22;6283;51.330;12.374;2024-01-11T07:01:11;-6.90;1.00
12438;DHT22;6283;51.330;12.374;2024-01-11T07:03:38;-6.90;1.00
12438;DHT22;6283;51.330;12.374;2024-01-11T07:06:04;-6.90;1.00
12438;DHT22;6283;51.330;12.374;2024-01-11T07:08:30;-6.80;1.00
12438;DHT22;6283;51.330;12.374;2024-01-11T07:10:56;-6.50;1.00
12438;DHT22;6283;51.330;12.374;2024-01-11T07:13:22;-6.70;1.00
12438;DHT22;6283;51.330;12.374;2024-01-11T07:15:48;-6.50;1.00
12438;DHT22;6283;51.330;12.374;2024-01-11T07:18:14;-6.40;1.00
12438;DHT22;6283;51.330;12.374;2024-01-11T07:20:40;-6.30;1.00
12438;DHT22;6283;51.330;12.374;2024-01-11T07:23:06;-6.60;1.00
12438;DHT22;6283;51.330;12.374;2024-01-11T07:25:32;-6.60;1.00
12438;DHT22;6283;51.330;12.374;2024-01-11T07:28:00;-6.80;1.00
12438;DHT22;6283;51.330;12.374;2024-01-11T07:30:25;-6.60;1.00
12438;DHT22;6283;51.330;12.374;2024-01-11T07:32:51;-6.70;1.00
12438;DHT22;6283;51.330;12.374;2024-01-11T07:35:17;-6.50;1.00
12438;DHT22;6283;51.330;12.374;2024-01-11T07:37:42;-6.80;1.00
12438;DHT22;6283;51.330;12.374;2024-01-11T07:40:09;-6.50;1.00
12438;DHT22;6283;51.330;12.374;2024-01-11T07:42:39;-6.60;1.00
12438;DHT22;6283;51.330;12.374;2024-01-11T07:45:09;-6.80;1.00
12438;DHT22;6283;51.330;12.374;2024-01-11T07:47:35;-6.70;1.00
12438;DHT22;6283;51.330;12.374;2024-01-11T07:50:03;-6.60;1.00
12438;DHT22;6283;51.330;12.374;2024-01-11T07:52:29;-6.60;1.00
12438;DHT22;6283;51.330;12.374;2024-01-11T07:54:55;-6.60;1.00
12438;DHT22;6283;51.330;12.374;2024-01-11T07:57:21;-6.70;1.00
12438;DHT22;6283;51.330;12.374;2024-01-11T07:59:46;-6.40;1.00
12438;DHT22;6283;51.330;12.374;2024-01-11T08:02:12;-6.60;1.00
12438;DHT22;6283;51.330;12.374;2024-01-11T08:04:38;-6.30;1.00
12438;DHT22;6283;51.330;12.374;2024-01-11T08:07:04;-6.30;1.00
12438;DHT22;6283;51.330;12.374;2024-01-11T08:09:30;-6.20;1.00
12438;DHT22;6283;51.330;12.374;2024-01-11T08:11:56;-6.40;1.00
12438;DHT22;6283;51.330;12.374;2024-01-11T08:14:22;-6.50;1.00
12438;DHT22;6283;51.330;12.374;2024-01-11T08:16:47;-6.30;1.00
12438;DHT22;6283;51.330;12.374;2024-01-11T08:19:13;-6.10;1.00
12438;DHT22;6283;51.330;12.374;2024-01-11T08:21:40;-6.00;1.00
12438;DHT22;6283;51.330;12.374;2024-01-11T08:24:07;-6.00;1.00
12438;DHT22;6283;51.330;12.374;2024-01-11T08:26:32;-5.90;1.00
12438;DHT22;6283;51.330;12.374;2024-01-11T08:28:58;-6.00;1.00
12438;DHT22;6283;51.330;12.374;2024-01-11T08:31:24;-5.90;1.00
12438;DHT22;6283;51.330;12.374;2024-01-11T08:33:50;-5.90;1.00
12438;DHT22;6283;51.330;12.374;2024-01-11T08:36:16;-5.50;1.00
12438;DHT22;6283;51.330;12.374;2024-01-11T08:38:42;-5.60;1.00
12438;DHT22;6283;51.330;12.374;2024-01-11T08:41:08;-5.60;1.00
12438;DHT22;6283;51.330;12.374;2024-01-11T08:43:33;-5.60;1.00
12438;DHT22;6283;51.330;12.374;2024-01-11T08:45:59;-5.60;1.00
12438;DHT22;6283;51.330;12.374;2024-01-11T08:48:27;-5.60;1.00
12438;DHT22;6283;51.330;12.374;2024-01-11T08:50:53;-5.50;1.00
12438;DHT22;6283;51.330;12.374;2024-01-11T08:53:19;-5.40;1.00
12438;DHT22;6283;51.330;12.374;2024-01-11T08:55:45;-5.60;1.00
12438;DHT22;6283;51.330;12.374;2024-01-11T08:58:11;-5.40;1.00
12438;DHT22;6283;51.330;12.374;2024-01-11T09:00:37;-5.40;1.00
12438;DHT22;6283;51.330;12.374;2024-01-11T09:03:03;-5.50;1.00
12438;DHT22;6283;51.330;12.374;2024-01-11T09:05:29;-5.20;1.00
12438;DHT22;6283;51.330;12.374;2024-01-11T09:07:55;-5.20;1.00
12438;DHT22;6283;51.330;12.374;2024-01-11T09:10:20;-5.30;1.00
12438;DHT22;6283;51.330;12.374;2024-01-11T09:12:46;-5.20;1.00
12438;DHT22;6283;51.330;12.374;2024-01-11T09:15:12;-5.30;1.00
12438;DHT22;6283;51.330;12.374;2024-01-11T09:17:38;-5.30;1.00
12438;DHT22;6283;51.330;12.374;2024-01-11T09:20:04;-5.00;1.00
12438;DHT22;6283;51.330;12.374;2024-01-11T09:22:30;-5.10;1.00
12438;DHT22;6283;51.330;12.374;2024-01-11T09:24:56;-5.00;1.00
12438;DHT22;6283;51.330;12.374;2024-01-11T09:27:21;-4.90;1.00
12438;DHT22;6283;51.330;12.374;2024-01-11T09:29:47;-5.00;1.00
12438;DHT22;6283;51.330;12.374;2024-01-11T09:32:13;-4.80;1.00
12438;DHT22;6283;51.330;12.374;2024-01-11T09:34:39;-4.80;1.00
12438;DHT22;6283;51.330;12.374;2024-01-11T09:37:05;-4.60;1.00
12438;DHT22;6283;51.330;12.374;2024-01-11T09:39:31;-4.60;1.00
12438;DHT22;6283;51.330;12.374;2024-01-11T09:42:09;-4.50;1.00
12438;DHT22;6283;51.330;12.374;2024-01-11T09:44:36;-4.10;1.00
12438;DHT22;6283;51.330;12.374;2024-01-11T09:47:05;-4.00;1.00
12438;DHT22;6283;51.330;12.374;2024-01-11T09:49:33;-3.80;1.00
12438;DHT22;6283;51.330;12.374;2024-01-11T09:52:00;-3.80;1.00
12438;DHT22;6283;51.330;12.374;2024-01-11T09:54:27;-3.80;1.00
12438;DHT22;6283;51.330;12.374;2024-01-11T09:56:54;-3.60;1.00
12438;DHT22;6283;51.330;12.374;2024-01-11T09:59:20;-3.70;1.00
12438;DHT22;6283;51.330;12.374;2024-01-11T10:01:49;-3.90;1.00
12438;DHT22;6283;51.330;12.374;2024-01-11T10:04:16;-3.50;1.00
12438;DHT22;6283;51.330;12.374;2024-01-11T10:06:43;-3.50;1.00
12438;DHT22;6283;51.330;12.374;2024-01-11T10:09:09;-3.50;1.00
12438;DHT22;6283;51.330;12.374;2024-01-11T10:11:35;-3.50;1.00
12438;DHT22;6283;51.330;12.374;2024-01-11T10:14:01;-3.40;1.00
12438;DHT22;6283;51.330;12.374;2024-01-11T10:16:28;-3.40;1.00
12438;DHT22;6283;51.330;12.374;2024-01-11T10:18:55;-3.20;1.00
12438;DHT22;6283;51.330;12.374;2024-01-11T10:21:21;-3.00;1.00
12438;DHT22;6283;51.330;12.374;2024-01-11T10:23:48;-3.10;1.00
12438;DHT22;6283;51.330;12.374;2024-01-11T10:26:17;-3.00;1.00
12438;DHT22;6283;51.330;12.374;2024-01-11T10:28:46;-3.00;1.00
12438;DHT22;6283;51.330;12.374;2024-01-11T10:31:12;-3.00;1.00
12438;DHT22;6283;51.330;12.374;2024-01-11T10:33:40;-2.90;1.00
12438;DHT22;6283;51.330;12.374;2024-01-11T10:36:06;-3.00;1.00
12438;DHT22;6283;51.330;12.374;2024-01-11T10:38:36;-3.00;1.00
12438;DHT22;6283;51.330;12.374;2024-01-11T10:41:05;-2.80;1.00
12438;DHT22;6283;51.330;12.374;2024-01-11T10:43:32;-3.00;1.00
12438;DHT22;6283;51.330;12.374;2024-01-11T10:46:02;-2.90;1.00
12438;DHT22;6283;51.330;12.374;2024-01-11T10:48:31;-2.80;1.00
12438;DHT22;6283;51.330;12.374;2024-01-11T10:51:01;-2.90;1.00
12438;DHT22;6283;51.330;12.374;2024-01-11T10:53:45;-2.80;1.00
12438;DHT22;6283;51.330;12.374;2024-01-11T10:56:13;-2.50;1.00
12438;DHT22;6283;51.330;12.374;2024-01-11T10:58:42;-2.40;1.00
12438;DHT22;6283;51.330;12.374;2024-01-11T11:01:10;-2.40;1.00
12438;DHT22;6283;51.330;12.374;2024-01-11T11:03:37;-2.30;1.00
12438;DHT22;6283;51.330;12.374;2024-01-11T11:06:04;-2.40;1.00
12438;DHT22;6283;51.330;12.374;2024-01-11T11:08:31;-2.10;1.00
12438;DHT22;6283;51.330;12.374;2024-01-11T11:11:00;-2.20;1.00
12438;DHT22;6283;51.330;12.374;2024-01-11T11:13:26;-2.40;1.00
12438;DHT22;6283;51.330;12.374;2024-01-11T11:15:53;-2.10;1.00
12438;DHT22;6283;51.330;12.374;2024-01-11T11:18:19;-1.90;1.00
12438;DHT22;6283;51.330;12.374;2024-01-11T11:20:47;-2.00;1.00
12438;DHT22;6283;51.330;12.374;2024-01-11T11:23:15;-2.00;1.00
12438;DHT22;6283;51.330;12.374;2024-01-11T11:25:44;-1.70;1.00
12438;DHT22;6283;51.330;12.374;2024-01-11T11:28:16;-1.70;1.00
12438;DHT22;6283;51.330;12.374;2024-01-11T11:30:44;-1.50;1.00
12438;DHT22;6283;51.330;12.374;2024-01-11T11:33:18;-1.50;1.00
12438;DHT22;6283;51.330;12.374;2024-01-11T11:35:51;-1.30;1.00
12438;DHT22;6283;51.330;12.374;2024-01-11T11:38:28;-1.20;1.00
12438;DHT22;6283;51.330;12.374;2024-01-11T11:40:58;-1.00;1.00
12438;DHT22;6283;51.330;12.374;2024-01-11T11:43:27;-1.10;1.00
12438;DHT22;6283;51.330;12.374;2024-01-11T11:45:53;-1.20;1.00
12438;DHT22;6283;51.330;12.374;2024-01-11T11:51:10;-1.10;1.00
12438;DHT22;6283;51.330;12.374;2024-01-11T11:53:38;-0.90;1.00
12438;DHT22;6283;51.330;12.374;2024-01-11T11:56:04;-0.90;1.00
12438;DHT22;6283;51.330;12.374;2024-01-11T11:58:31;-0.50;1.00
12438;DHT22;6283;51.330;12.374;2024-01-11T12:00:58;-0.20;1.00
12438;DHT22;6283;51.330;12.374;2024-01-11T12:03:32;0.10;1.00
12438;DHT22;6283;51.330;12.374;2024-01-11T12:05:59;0.40;1.00
12438;DHT22;6283;51.330;12.374;2024-01-11T12:08:25;0.30;1.00
12438;DHT22;6283;51.330;12.374;2024-01-11T12:10:51;0.10;1.00
12438;DHT22;6283;51.330;12.374;2024-01-11T12:13:20;0.40;1.00
12438;DHT22;6283;51.330;12.374;2024-01-11T12:15:46;0.20;1.00
12438;DHT22;6283;51.330;12.374;2024-01-11T12:18:12;0.30;1.00
12438;DHT22;6283;51.330;12.374;2024-01-11T12:20:38;0.10;1.00
12438;DHT22;6283;51.330;12.374;2024-01-11T12:23:04;0.20;1.00
12438;DHT22;6283;51.330;12.374;2024-01-11T12:25:31;0.10;1.00
12438;DHT22;6283;51.330;12.374;2024-01-11T12:27:57;0.30;1.00
12438;DHT22;6283;51.330;12.374;2024-01-11T12:30:26;0.20;1.00
12438;DHT22;6283;51.330;12.374;2024-01-11T12:32:56;0.10;1.00
12438;DHT22;6283;51.330;12.374;2024-01-11T12:35:22;0.10;1.00
12438;DHT22;6283;51.330;12.374;2024-01-11T12:38:04;0.20;1.00
12438;DHT22;6283;51.330;12.374;2024-01-11T12:40:35;0.10;1.00
12438;DHT22;6283;51.330;12.374;2024-01-11T12:43:03;0.30;1.00
12438;DHT22;6283;51.330;12.374;2024-01-11T12:45:29;0.20;1.00
12438;DHT22;6283;51.330;12.374;2024-01-11T12:48:00;0.20;1.00
12438;DHT22;6283;51.330;12.374;2024-01-11T12:50:27;-0.10;1.00
12438;DHT22;6283;51.330;12.374;2024-01-11T12:53:09;-0.10;1.00
12438;DHT22;6283;51.330;12.374;2024-01-11T12:55:35;0.10;1.00
12438;DHT22;6283;51.330;12.374;2024-01-11T12:58:07;-0.10;1.00
12438;DHT22;6283;51.330;12.374;2024-01-11T13:00:37;-0.10;1.00
12438;DHT22;6283;51.330;12.374;2024-01-11T13:03:04;-0.10;1.00
12438;DHT22;6283;51.330;12.374;2024-01-11T13:05:30;0.00;1.00
12438;DHT22;6283;51.330;12.374;2024-01-11T13:08:01;0.10;1.00
12438;DHT22;6283;51.330;12.374;2024-01-11T13:10:28;-0.10;1.00
12438;DHT22;6283;51.330;12.374;2024-01-11T13:12:54;0.10;1.00
12438;DHT22;6283;51.330;12.374;2024-01-11T13:15:20;0.20;1.00
12438;DHT22;6283;51.330;12.374;2024-01-11T13:17:46;-0.10;1.00
12438;DHT22;6283;51.330;12.374;2024-01-11T13:20:11;0.20;1.00
12438;DHT22;6283;51.330;12.374;2024-01-11T13:22:38;0.20;1.00
12438;DHT22;6283;51.330;12.374;2024-01-11T13:25:04;0.40;1.00
12438;DHT22;6283;51.330;12.374;2024-01-11T13:27:30;0.60;1.00
12438;DHT22;6283;51.330;12.374;2024-01-11T13:29:57;0.70;1.00
12438;DHT22;6283;51.330;12.374;2024-01-11T13:32:23;0.90;1.00
12438;DHT22;6283;51.330;12.374;2024-01-11T13:34:49;1.10;1.00
12438;DHT22;6283;51.330;12.374;2024-01-11T13:37:18;1.00;1.00
12438;DHT22;6283;51.330;12.374;2024-01-11T13:39:44;1.30;1.00
12438;DHT22;6283;51.330;12.374;2024-01-11T13:42:10;1.60;1.00
12438;DHT22;6283;51.330;12.374;2024-01-11T13:44:36;1.80;1.00
12438;DHT22;6283;51.330;12.374;2024-01-11T13:47:02;1.60;1.00
12438;DHT22;6283;51.330;12.374;2024-01-11T13:49:28;1.90;1.00
12438;DHT22;6283;51.330;12.374;2024-01-11T13:51:54;2.00;1.00
12438;DHT22;6283;51.330;12.374;2024-01-11T13:54:19;2.10;1.00
12438;DHT22;6283;51.330;12.374;2024-01-11T13:56:47;2.40;1.00
12438;DHT22;6283;51.330;12.374;2024-01-11T13:59:13;2.50;1.00
12438;DHT22;6283;51.330;12.374;2024-01-11T14:01:38;2.60;1.00
12438;DHT22;6283;51.330;12.374;2024-01-11T14:04:04;2.30;1.00
12438;DHT22;6283;51.330;12.374;2024-01-11T14:06:30;2.60;1.00
12438;DHT22;6283;51.330;12.374;2024-01-11T14:08:55;2.40;1.00
12438;DHT22;6283;51.330;12.374;2024-01-11T14:11:21;2.40;1.00
12438;DHT22;6283;51.330;12.374;2024-01-11T14:13:47;2.50;1.00
12438;DHT22;6283;51.330;12.374;2024-01-11T14:16:13;2.40;1.00
12438;DHT22;6283;51.330;12.374;2024-01-11T14:18:41;2.80;1.00
12438;DHT22;6283;51.330;12.374;2024-01-11T14:21:06;2.60;1.00
12438;DHT22;6283;51.330;12.374;2024-01-11T14:23:32;2.60;1.00
12438;DHT22;6283;51.330;12.374;2024-01-11T14:25:58;2.50;1.40
12438;DHT22;6283;51.330;12.374;2024-01-11T14:28:24;2.40;99.90
12438;DHT22;6283;51.330;12.374;2024-01-11T14:30:49;2.40;1.00
12438;DHT22;6283;51.330;12.374;2024-01-11T14:33:15;2.20;1.00
12438;DHT22;6283;51.330;12.374;2024-01-11T14:35:41;2.10;99.90
12438;DHT22;6283;51.330;12.374;2024-01-11T14:38:07;2.10;1.00
12438;DHT22;6283;51.330;12.374;2024-01-11T14:40:32;1.90;1.00
12438;DHT22;6283;51.330;12.374;2024-01-11T14:42:58;1.50;1.00
12438;DHT22;6283;51.330;12.374;2024-01-11T14:45:23;1.30;1.00
12438;DHT22;6283;51.330;12.374;2024-01-11T14:47:49;1.30;1.00
12438;DHT22;6283;51.330;12.374;2024-01-11T14:50:15;1.00;1.00
12438;DHT22;6283;51.330;12.374;2024-01-11T14:52:40;1.00;1.00
12438;DHT22;6283;51.330;12.374;2024-01-11T14:55:07;1.20;1.00
12438;DHT22;6283;51.330;12.374;2024-01-11T14:57:35;1.00;1.00
12438;DHT22;6283;51.330;12.374;2024-01-11T15:00:01;1.10;1.00
12438;DHT22;6283;51.330;12.374;2024-01-11T15:02:27;0.80;1.00
12438;DHT22;6283;51.330;12.374;2024-01-11T15:04:53;0.70;1.00
12438;DHT22;6283;51.330;12.374;2024-01-11T15:07:18;0.60;1.00
12438;DHT22;6283;51.330;12.374;2024-01-11T15:09:44;0.10;1.00
12438;DHT22;6283;51.330;12.374;2024-01-11T15:12:10;0.20;1.00
12438;DHT22;6283;51.330;12.374;2024-01-11T15:14:35;-0.40;1.00
12438;DHT22;6283;51.330;12.374;2024-01-11T15:17:01;-0.40;1.00
12438;DHT22;6283;51.330;12.374;2024-01-11T15:19:28;-0.90;1.00
12438;DHT22;6283;51.330;12.374;2024-01-11T15:21:53;-0.70;1.00
12438;DHT22;6283;51.330;12.374;2024-01-11T15:24:19;-1.10;1.00
12438;DHT22;6283;51.330;12.374;2024-01-11T15:26:45;-1.20;1.00
12438;DHT22;6283;51.330;12.374;2024-01-11T15:29:11;-1.10;1.00
12438;DHT22;6283;51.330;12.374;2024-01-11T15:31:37;-1.30;1.00
12438;DHT22;6283;51.330;12.374;2024-01-11T15:34:05;-1.30;1.00
12438;DHT22;6283;51.330;12.374;2024-01-11T15:36:31;-1.40;1.00
12438;DHT22;6283;51.330;12.374;2024-01-11T15:38:56;-1.50;1.00
12438;DHT22;6283;51.330;12.374;2024-01-11T15:41:22;-1.40;1.00
12438;DHT22;6283;51.330;12.374;2024-01-11T15:43:48;-1.50;1.00
12438;DHT22;6283;51.330;12.374;2024-01-11T15:46:14;-1.50;1.00
12438;DHT22;6283;51.330;12.374;2024-01-11T15:48:40;-1.50;1.00